Time;durP1;ratioP1;P1;durP2;ratioP2;P2;SDS_P1;SDS_P2;PMS_P1;PMS_P2;Temp;Humidity;BMP_temperature;BMP_pressure;BME280_temperature;BME280_humidity;BME280_pressure;Samples;Min_cycle;Max_cycle;Signal;HPM_P1;HPM_P2
2023/03/12 00:04:23;;;;;;;20.77;13.05;;;;;;;;;;10064548;28;20045;-65
2023/03/12 00:09:16;;;;;;;15.93;11.07;;;;;;;;;;10065040;28;20056;-66
2023/03/12 00:14:09;;;;;;;15.95;8.77;;;;;;;;;;10069973;28;20124;-65
2023/03/12 00:19:02;;;;;;;25.33;9.98;;;;;;;;;;10073517;28;20516;-65
2023/03/12 00:23:56;;;;;;;15.05;8.55;;;;;;;;;;10075564;28;20252;-65
2023/03/12 00:28:49;;;;;;;22.58;10.75;;;;;;;;;;10069092;28;20054;-65
2023/03/12 00:33:42;;;;;;;15.02;9.00;;;;;;;;;;10070816;28;20041;-65
2023/03/12 00:38:36;;;;;;;14.07;8.13;;;;;;;;;;10071302;28;20061;-65
2023/03/12 00:43:29;;;;;;;11.50;7.90;;;;;;;;;;10070774;28;20041;-65
2023/03/12 00:48:24;;;;;;;18.90;9.27;;;;;;;;;;10069387;28;20639;-65
2023/03/12 00:53:17;;;;;;;12.18;8.27;;;;;;;;;;10070065;28;20092;-65
2023/03/12 00:58:10;;;;;;;19.85;8.45;;;;;;;;;;10070867;28;20046;-65
2023/03/12 01:03:03;;;;;;;17.63;7.85;;;;;;;;;;10070007;28;20071;-65
2023/03/12 01:07:56;;;;;;;16.17;8.90;;;;;;;;;;10069021;28;20712;-65
2023/03/12 01:12:49;;;;;;;16.48;9.18;;;;;;;;;;10070126;28;20128;-66
2023/03/12 01:17:42;;;;;;;13.40;8.20;;;;;;;;;;10067136;28;20041;-65
2023/03/12 01:22:35;;;;;;;19.10;8.23;;;;;;;;;;10100790;28;20068;-66
2023/03/12 01:27:27;;;;;;;17.02;7.35;;;;;;;;;;10069366;28;20136;-66
2023/03/12 01:32:20;;;;;;;20.00;8.30;;;;;;;;;;10069187;28;20092;-66
2023/03/12 01:37:14;;;;;;;13.02;7.38;;;;;;;;;;10069111;28;20042;-66
2023/03/12 01:42:08;;;;;;;10.50;5.88;;;;;;;;;;10068954;28;20103;-66
2023/03/12 01:47:02;;;;;;;18.77;7.78;;;;;;;;;;10066676;28;20095;-66
2023/03/12 01:51:57;;;;;;;17.80;9.98;;;;;;;;;;10068328;28;20049;-66
2023/03/12 01:56:54;;;;;;;13.75;8.60;;;;;;;;;;10066926;28;20080;-66
2023/03/12 02:01:48;;;;;;;21.52;8.10;;;;;;;;;;10066456;28;20503;-66
2023/03/12 02:06:49;;;;;;;16.15;8.50;;;;;;;;;;10073902;28;20045;-66
2023/03/12 02:11:42;;;;;;;19.17;8.98;;;;;;;;;;10067716;28;20467;-67
2023/03/12 02:16:35;;;;;;;17.83;9.93;;;;;;;;;;10066148;28;20087;-66
2023/03/12 02:21:32;;;;;;;16.02;10.10;;;;;;;;;;10065807;28;20052;-66
2023/03/12 02:26:26;;;;;;;17.23;10.70;;;;;;;;;;10049700;28;20455;-66
2023/03/12 02:31:24;;;;;;;18.92;11.30;;;;;;;;;;10047767;28;20038;-66
2023/03/12 02:36:17;;;;;;;16.23;11.02;;;;;;;;;;10097827;28;20075;-66
2023/03/12 02:41:19;;;;;;;18.10;11.18;;;;;;;;;;10065096;28;20049;-66
2023/03/12 02:46:13;;;;;;;21.85;14.00;;;;;;;;;;10065410;28;20049;-66
2023/03/12 02:51:06;;;;;;;17.63;12.93;;;;;;;;;;10066198;28;20092;-66
2023/03/12 02:55:59;;;;;;;20.70;10.63;;;;;;;;;;10065946;28;20519;-66
2023/03/12 03:00:53;;;;;;;19.98;11.63;;;;;;;;;;10088377;28;20133;-66
2023/03/12 03:05:47;;;;;;;17.08;10.65;;;;;;;;;;10065760;28;20060;-66
2023/03/12 03:10:39;;;;;;;17.10;11.07;;;;;;;;;;10065452;28;20100;-67
2023/03/12 03:15:32;;;;;;;20.23;12.25;;;;;;;;;;10066136;28;20152;-66
2023/03/12 03:20:26;;;;;;;18.98;13.45;;;;;;;;;;10065541;28;20060;-67
2023/03/12 03:25:21;;;;;;;14.63;10.60;;;;;;;;;;10063933;28;20052;-66
2023/03/12 03:30:16;;;;;;;22.10;11.77;;;;;;;;;;10064914;28;20053;-67
2023/03/12 03:35:12;;;;;;;16.50;11.73;;;;;;;;;;10063912;28;20077;-66
2023/03/12 03:40:10;;;;;;;19.48;10.80;;;;;;;;;;10063281;28;20050;-67
2023/03/12 03:45:06;;;;;;;20.25;12.10;;;;;;;;;;10070271;28;20077;-67
2023/03/12 03:50:01;;;;;;;17.42;11.55;;;;;;;;;;10071061;28;20136;-67
2023/03/12 03:54:55;;;;;;;17.13;11.85;;;;;;;;;;10070904;28;20045;-68
2023/03/12 03:59:49;;;;;;;18.63;12.13;;;;;;;;;;10101202;28;20424;-67
2023/03/12 04:04:42;;;;;;;21.27;13.20;;;;;;;;;;10072754;28;20049;-68
2023/03/12 04:09:36;;;;;;;15.48;12.13;;;;;;;;;;10071636;28;20416;-67
2023/03/12 04:14:29;;;;;;;19.80;11.98;;;;;;;;;;10072320;28;20055;-67
2023/03/12 04:19:22;;;;;;;19.13;13.27;;;;;;;;;;10076694;28;20049;-67
2023/03/12 04:24:17;;;;;;;17.77;12.02;;;;;;;;;;10075881;28;20128;-67
2023/03/12 04:29:10;;;;;;;22.23;12.25;;;;;;;;;;10070483;28;20060;-67
2023/03/12 04:34:05;;;;;;;22.08;12.88;;;;;;;;;;10065573;28;20049;-67
2023/03/12 04:38:59;;;;;;;25.52;14.98;;;;;;;;;;10057920;28;20460;-67
2023/03/12 04:43:55;;;;;;;32.08;13.48;;;;;;;;;;10065049;28;20045;-67
2023/03/12 04:48:49;;;;;;;18.08;10.70;;;;;;;;;;10070241;28;20049;-67
2023/03/12 04:53:43;;;;;;;22.02;12.55;;;;;;;;;;10069781;28;20136;-68
2023/03/12 04:58:38;;;;;;;17.60;11.18;;;;;;;;;;10069222;28;20057;-67
2023/03/12 05:03:32;;;;;;;16.20;12.43;;;;;;;;;;10068480;28;20042;-67
2023/03/12 05:08:26;;;;;;;19.88;12.77;;;;;;;;;;10068877;28;20140;-67
2023/03/12 05:13:20;;;;;;;16.30;11.82;;;;;;;;;;10071523;28;20056;-67
2023/03/12 05:18:15;;;;;;;18.35;11.52;;;;;;;;;;10068695;28;20168;-68
2023/03/12 05:23:08;;;;;;;18.10;12.25;;;;;;;;;;10055764;28;20560;-67
2023/03/12 05:28:02;;;;;;;20.67;11.52;;;;;;;;;;10069561;28;20448;-67
2023/03/12 05:32:56;;;;;;;18.45;12.75;;;;;;;;;;10067201;28;20056;-67
2023/03/12 05:37:49;;;;;;;21.65;13.10;;;;;;;;;;10070207;28;20049;-67
2023/03/12 05:42:43;;;;;;;25.60;11.15;;;;;;;;;;10106978;28;20049;-67
2023/03/12 05:47:37;;;;;;;16.30;11.00;;;;;;;;;;10066703;28;20053;-67
2023/03/12 05:52:30;;;;;;;18.50;11.82;;;;;;;;;;10068665;28;20081;-67
2023/03/12 05:57:24;;;;;;;16.40;11.05;;;;;;;;;;10072397;28;20053;-68
2023/03/12 06:02:17;;;;;;;20.00;11.77;;;;;;;;;;10069364;28;20054;-68
2023/03/12 06:07:10;;;;;;;12.60;10.13;;;;;;;;;;10066381;28;20136;-68
2023/03/12 06:12:05;;;;;;;12.57;9.77;;;;;;;;;;10065897;28;20140;-68
2023/03/12 06:16:59;;;;;;;16.02;9.40;;;;;;;;;;10065868;28;20045;-68
2023/03/12 06:21:53;;;;;;;16.23;9.32;;;;;;;;;;10061300;28;20053;-65
2023/03/12 06:26:47;;;;;;;12.82;9.13;;;;;;;;;;10051423;28;20042;-66
2023/03/12 06:31:42;;;;;;;14.98;9.65;;;;;;;;;;10050754;28;20448;-65
2023/03/12 06:36:36;;;;;;;13.30;9.98;;;;;;;;;;10061307;28;20053;-66
2023/03/12 06:41:30;;;;;;;18.27;10.13;;;;;;;;;;10058454;28;20061;-65
2023/03/12 06:46:24;;;;;;;15.05;10.60;;;;;;;;;;10061646;28;20075;-66
2023/03/12 06:51:17;;;;;;;13.88;8.57;;;;;;;;;;10054019;28;20100;-66
2023/03/12 06:56:11;;;;;;;14.05;9.00;;;;;;;;;;10060025;28;20547;-66
2023/03/12 07:01:04;;;;;;;12.23;8.50;;;;;;;;;;10057047;28;20073;-66
2023/03/12 07:05:58;;;;;;;13.40;7.68;;;;;;;;;;10060484;28;20060;-66
2023/03/12 07:10:51;;;;;;;16.98;8.43;;;;;;;;;;10055950;28;20554;-66
2023/03/12 07:15:45;;;;;;;12.40;8.52;;;;;;;;;;10056378;28;20507;-63
2023/03/12 07:20:40;;;;;;;12.48;7.97;;;;;;;;;;10059613;28;20481;-68
2023/03/12 07:25:37;;;;;;;11.70;7.72;;;;;;;;;;10067344;28;20049;-67
2023/03/12 07:30:32;;;;;;;13.40;7.47;;;;;;;;;;10065125;28;20474;-70
2023/03/12 07:35:26;;;;;;;11.32;7.10;;;;;;;;;;10064891;28;20045;-70
2023/03/12 07:40:20;;;;;;;8.25;6.60;;;;;;;;;;10064014;28;20053;-70
2023/03/12 07:45:15;;;;;;;10.98;8.02;;;;;;;;;;10065995;28;20050;-69
2023/03/12 07:50:09;;;;;;;11.60;7.60;;;;;;;;;;10071923;28;20061;-73
2023/03/12 07:55:02;;;;;;;12.82;7.00;;;;;;;;;;10069110;28;20489;-67
2023/03/12 07:59:55;;;;;;;14.13;7.03;;;;;;;;;;10063502;28;20099;-68
2023/03/12 08:04:48;;;;;;;10.73;7.32;;;;;;;;;;10064921;28;20061;-67
2023/03/12 08:09:41;;;;;;;15.48;7.25;;;;;;;;;;10064054;28;20053;-68
2023/03/12 08:14:34;;;;;;;13.65;6.55;;;;;;;;;;10064865;28;20523;-73
2023/03/12 08:19:27;;;;;;;9.13;6.10;;;;;;;;;;10064551;28;20144;-73
2023/03/12 08:24:21;;;;;;;8.80;5.68;;;;;;;;;;10070513;28;20409;-72
2023/03/12 08:29:15;;;;;;;11.98;7.03;;;;;;;;;;10062635;28;20413;-72
2023/03/12 08:39:35;;;;;;;12.05;6.18;;;;;;;;;;10127432;22;20449;-64
2023/03/12 08:44:30;;;;;;;14.00;6.55;;;;;;;;;;10096453;28;20498;-63
2023/03/12 08:49:23;;;;;;;16.35;7.50;;;;;;;;;;10099205;28;20527;-64
2023/03/12 08:54:15;;;;;;;11.25;6.10;;;;;;;;;;10092730;28;20535;-64
2023/03/12 08:59:09;;;;;;;11.48;5.50;;;;;;;;;;10104076;28;20099;-63
2023/03/12 09:04:03;;;;;;;11.73;5.05;;;;;;;;;;10100209;28;20388;-68
2023/03/12 09:09:03;;;;;;;11.00;5.47;;;;;;;;;;10103104;28;20087;-66
2023/03/12 09:13:58;;;;;;;13.07;6.18;;;;;;;;;;10103032;28;20045;-66
2023/03/12 09:19:11;;;;;;;7.65;5.10;;;;;;;;;;10104113;28;20049;-66
2023/03/12 09:24:06;;;;;;;10.68;5.25;;;;;;;;;;10100479;28;20056;-67
2023/03/12 09:28:59;;;;;;;7.88;4.47;;;;;;;;;;10106065;28;20049;-66
2023/03/12 09:33:52;;;;;;;8.95;5.57;;;;;;;;;;10107346;28;20102;-66
2023/03/12 09:38:46;;;;;;;12.40;4.65;;;;;;;;;;10104573;28;20114;-66
2023/03/12 09:43:46;;;;;;;12.35;5.13;;;;;;;;;;10103541;28;20041;-65
2023/03/12 09:48:40;;;;;;;11.27;4.93;;;;;;;;;;10086033;28;20530;-66
2023/03/12 09:53:45;;;;;;;12.32;4.35;;;;;;;;;;10105999;28;20064;-66
2023/03/12 09:58:38;;;;;;;11.93;4.18;;;;;;;;;;10084356;28;20053;-66
2023/03/12 10:03:53;;;;;;;10.02;4.75;;;;;;;;;;10093098;28;20106;-66
2023/03/12 10:09:21;;;;;;;12.82;4.97;;;;;;;;;;10090221;28;20151;-66
2023/03/12 10:14:42;;;;;;;7.05;3.72;;;;;;;;;;10049844;28;20111;-66
2023/03/12 10:19:50;;;;;;;7.32;4.30;;;;;;;;;;10094354;28;20057;-66
2023/03/12 10:25:00;;;;;;;7.40;4.33;;;;;;;;;;10105251;28;20057;-66
2023/03/12 10:29:52;;;;;;;7.45;3.63;;;;;;;;;;10103181;28;20056;-66
2023/03/12 10:34:51;;;;;;;11.85;4.53;;;;;;;;;;10094733;28;20047;-66
2023/03/12 10:39:45;;;;;;;13.02;5.03;;;;;;;;;;10104210;28;20123;-66
2023/03/12 10:44:37;;;;;;;9.23;7.00;;;;;;;;;;10105072;28;20041;-66
2023/03/12 10:49:34;;;;;;;9.30;5.82;;;;;;;;;;10105988;28;20045;-66
2023/03/12 10:54:27;;;;;;;8.70;6.40;;;;;;;;;;10091701;28;20167;-66
2023/03/12 10:59:21;;;;;;;8.52;6.72;;;;;;;;;;10090673;28;20049;-66
2023/03/12 11:04:21;;;;;;;8.80;5.20;;;;;;;;;;10092675;28;20072;-67
2023/03/12 11:09:17;;;;;;;;;;;;;;;;;;10088057;28;20049;-67
2023/03/12 11:14:18;;;;;;;30.17;26.10;;;;;;;;;;10102779;28;19966;-67
2023/03/12 11:19:14;;;;;;;6.68;5.43;;;;;;;;;;10103938;28;20079;-67
2023/03/12 11:24:27;;;;;;;27.67;24.70;;;;;;;;;;10107970;28;20047;-68
2023/03/12 11:29:31;;;;;;;8.23;6.22;;;;;;;;;;10087434;28;20503;-66
2023/03/12 11:34:48;;;;;;;18.98;6.95;;;;;;;;;;10102906;28;20527;-67
2023/03/12 11:40:18;;;;;;;8.55;5.68;;;;;;;;;;10092872;28;20114;-68
2023/03/12 11:45:29;;;;;;;7.03;5.30;;;;;;;;;;10085855;28;20061;-68
2023/03/12 11:50:39;;;;;;;15.32;8.98;;;;;;;;;;10075645;28;20061;-67
2023/03/12 11:55:43;;;;;;;10.50;5.18;;;;;;;;;;10062985;28;20565;-67
2023/03/12 12:01:04;;;;;;;8.82;5.15;;;;;;;;;;10100499;28;20052;-67
2023/03/12 12:05:57;;;;;;;13.50;5.80;;;;;;;;;;10096111;28;20543;-67
2023/03/12 12:11:05;;;;;;;8.57;6.32;;;;;;;;;;10105112;28;20095;-67
2023/03/12 12:16:13;;;;;;;8.60;4.47;;;;;;;;;;10082983;28;20083;-67
2023/03/12 12:21:18;;;;;;;11.18;6.07;;;;;;;;;;10087427;28;20048;-68
2023/03/12 12:26:13;;;;;;;12.88;6.22;;;;;;;;;;10088445;28;20045;-69
2023/03/12 12:31:33;;;;;;;12.98;5.32;;;;;;;;;;10108322;28;20075;-68
2023/03/12 12:36:30;;;;;;;8.40;5.35;;;;;;;;;;10095607;28;20045;-66
2023/03/12 12:41:25;;;;;;;10.10;5.13;;;;;;;;;;10104725;28;20136;-61
2023/03/12 12:46:29;;;;;;;15.52;5.93;;;;;;;;;;10099876;28;20106;-63
2023/03/12 12:51:26;;;;;;;10.45;4.80;;;;;;;;;;10107487;28;20410;-63
2023/03/12 12:56:30;;;;;;;8.70;5.07;;;;;;;;;;10105538;28;20076;-64
2023/03/12 13:01:25;;;;;;;7.50;5.55;;;;;;;;;;10091609;28;20036;-67
2023/03/12 13:06:20;;;;;;;7.20;4.90;;;;;;;;;;10106769;28;20111;-68
2023/03/12 13:11:16;;;;;;;9.10;5.60;;;;;;;;;;10097522;28;20049;-66
2023/03/12 13:16:20;;;;;;;10.23;6.05;;;;;;;;;;10104116;28;20041;-66
2023/03/12 13:21:40;;;;;;;6.32;4.75;;;;;;;;;;10106969;28;20060;-67
2023/03/12 13:27:02;;;;;;;6.45;4.95;;;;;;;;;;10105592;28;20053;-66
2023/03/12 13:31:56;;;;;;;10.05;4.95;;;;;;;;;;10106334;28;20048;-66
2023/03/12 13:36:50;;;;;;;7.13;5.13;;;;;;;;;;10108292;28;20071;-65
2023/03/12 13:41:43;;;;;;;8.52;5.10;;;;;;;;;;10080252;28;20037;-65
2023/03/12 13:46:38;;;;;;;9.18;6.20;;;;;;;;;;10107622;28;20057;-65
2023/03/12 13:51:32;;;;;;;15.77;5.97;;;;;;;;;;10098828;28;20136;-65
2023/03/12 13:56:30;;;;;;;14.15;5.10;;;;;;;;;;10100335;28;20506;-65
2023/03/12 14:01:28;;;;;;;7.97;4.43;;;;;;;;;;10107500;28;20131;-66
2023/03/12 14:06:23;;;;;;;11.03;6.53;;;;;;;;;;10106371;28;20074;-65
2023/03/12 14:11:40;;;;;;;8.00;4.88;;;;;;;;;;10107036;28;20306;-65
2023/03/12 14:16:40;;;;;;;9.70;5.40;;;;;;;;;;10098867;28;20411;-64
2023/03/12 14:21:35;;;;;;;6.95;4.78;;;;;;;;;;10099960;28;20037;-67
2023/03/12 14:26:32;;;;;;;;;;;;;;;;;;10114675;28;20041;-65
2023/03/12 14:31:24;;;;;;;11.15;4.93;;;;;;;;;;10102298;28;19921;-65
2023/03/12 14:36:20;;;;;;;14.10;6.15;;;;;;;;;;10100281;28;20049;-65
2023/03/12 14:41:33;;;;;;;11.80;5.72;;;;;;;;;;10100198;28;20056;-65
2023/03/12 14:46:27;;;;;;;11.75;5.50;;;;;;;;;;10100303;28;20135;-65
2023/03/12 14:51:20;;;;;;;7.75;5.32;;;;;;;;;;10100573;28;20055;-65
2023/03/12 14:56:28;;;;;;;9.25;5.30;;;;;;;;;;10101972;28;20041;-65
2023/03/12 15:01:45;;;;;;;9.90;4.88;;;;;;;;;;10103774;28;20091;-65
2023/03/12 15:06:50;;;;;;;6.32;4.50;;;;;;;;;;10097629;28;20048;-65
2023/03/12 15:11:44;;;;;;;8.77;3.92;;;;;;;;;;10096453;28;20043;-64
2023/03/12 15:16:36;;;;;;;9.48;4.75;;;;;;;;;;10091269;28;20047;-65
2023/03/12 15:21:32;;;;;;;8.95;5.25;;;;;;;;;;10084046;28;20123;-65
2023/03/12 15:26:28;;;;;;;11.48;4.65;;;;;;;;;;10092868;28;20084;-64
2023/03/12 15:31:21;;;;;;;11.88;4.68;;;;;;;;;;10095156;28;20051;-64
2023/03/12 15:36:15;;;;;;;12.43;4.80;;;;;;;;;;10099335;28;20056;-64
2023/03/12 15:41:15;;;;;;;18.60;6.07;;;;;;;;;;10103897;28;20052;-64
2023/03/12 15:46:11;;;;;;;11.27;4.43;;;;;;;;;;10111348;28;20128;-64
2023/03/12 15:51:12;;;;;;;11.73;4.88;;;;;;;;;;10113567;28;20098;-64
2023/03/12 15:56:10;;;;;;;14.27;4.65;;;;;;;;;;10112598;28;20094;-65
2023/03/12 16:01:07;;;;;;;;;;;;;;;;;;10112164;28;20045;-66
2023/03/12 16:06:01;;;;;;;7.30;5.10;;;;;;;;;;10111364;28;19920;-64
2023/03/12 16:10:54;;;;;;;12.27;4.65;;;;;;;;;;10111483;28;20048;-65
2023/03/12 16:15:48;;;;;;;7.78;4.05;;;;;;;;;;10088110;28;20114;-65
2023/03/12 16:20:41;;;;;;;15.30;4.55;;;;;;;;;;10106077;28;20056;-64
2023/03/12 16:25:34;;;;;;;6.88;3.60;;;;;;;;;;10106780;28;20041;-63
2023/03/12 16:30:28;;;;;;;13.10;5.05;;;;;;;;;;10108189;28;20507;-62
2023/03/12 16:35:22;;;;;;;8.88;3.88;;;;;;;;;;10104858;28;20388;-63
2023/03/12 16:40:15;;;;;;;6.03;3.40;;;;;;;;;;10109148;28;20080;-63
2023/03/12 16:45:26;;;;;;;13.85;5.32;;;;;;;;;;10106938;28;20384;-63
2023/03/12 16:50:21;;;;;;;9.13;4.40;;;;;;;;;;10106540;28;20099;-63
2023/03/12 16:55:15;;;;;;;10.80;4.25;;;;;;;;;;10106243;28;20041;-63
2023/03/12 17:00:13;;;;;;;12.48;5.25;;;;;;;;;;10109258;28;20128;-63
2023/03/12 17:05:08;;;;;;;12.90;5.43;;;;;;;;;;10102723;28;20098;-63
2023/03/12 17:10:01;;;;;;;9.55;4.95;;;;;;;;;;10108243;28;20985;-63
2023/03/12 17:14:56;;;;;;;12.57;5.00;;;;;;;;;;10102476;28;20048;-63
2023/03/12 17:19:50;;;;;;;11.30;5.07;;;;;;;;;;10106974;28;20580;-63
2023/03/12 17:24:45;;;;;;;9.88;4.68;;;;;;;;;;10106049;28;20103;-63
2023/03/12 17:29:39;;;;;;;16.05;6.32;;;;;;;;;;10102416;28;20060;-62
2023/03/12 17:34:32;;;;;;;8.10;4.15;;;;;;;;;;10099562;28;20072;-63
2023/03/12 17:39:25;;;;;;;7.18;4.20;;;;;;;;;;10105778;28;20049;-64
2023/03/12 17:44:18;;;;;;;16.38;4.63;;;;;;;;;;10105419;28;20047;-63
2023/03/12 17:49:12;;;;;;;11.70;5.93;;;;;;;;;;10095654;28;20453;-62
2023/03/12 17:54:05;;;;;;;11.13;4.70;;;;;;;;;;10104950;28;20045;-62
2023/03/12 17:58:58;;;;;;;9.50;4.25;;;;;;;;;;10108287;28;20083;-62
2023/03/12 18:03:51;;;;;;;11.60;3.25;;;;;;;;;;10100785;28;20542;-62
2023/03/12 18:08:45;;;;;;;6.95;3.10;;;;;;;;;;10107571;28;20040;-63
2023/03/12 18:13:38;;;;;;;6.13;3.20;;;;;;;;;;10104313;28;20451;-62
2023/03/12 18:18:32;;;;;;;11.60;4.57;;;;;;;;;;10104360;28;20045;-63
2023/03/12 18:23:26;;;;;;;8.57;3.85;;;;;;;;;;10105588;28;20479;-63
2023/03/12 18:28:21;;;;;;;8.30;3.10;;;;;;;;;;10101285;28;20048;-62
2023/03/12 18:33:14;;;;;;;7.05;2.80;;;;;;;;;;10106469;28;20056;-63
2023/03/12 18:38:07;;;;;;;6.78;3.15;;;;;;;;;;10104433;28;20118;-63
2023/03/12 18:43:01;;;;;;;9.50;4.05;;;;;;;;;;10101038;28;20132;-62
2023/03/12 18:47:54;;;;;;;7.57;3.33;;;;;;;;;;10101992;28;20063;-63
2023/03/12 18:52:47;;;;;;;7.55;3.72;;;;;;;;;;10106156;28;20550;-63
2023/03/12 18:57:43;;;;;;;5.68;2.45;;;;;;;;;;10107144;28;20139;-62
2023/03/12 19:02:36;;;;;;;7.13;3.47;;;;;;;;;;10106117;28;20506;-62
2023/03/12 19:07:30;;;;;;;10.43;3.33;;;;;;;;;;10105462;28;20057;-62
2023/03/12 19:12:24;;;;;;;7.03;3.80;;;;;;;;;;10105445;28;20061;-62
2023/03/12 19:17:17;;;;;;;10.50;3.65;;;;;;;;;;10103163;28;20424;-62
2023/03/12 19:22:11;;;;;;;9.93;4.05;;;;;;;;;;10105050;28;20091;-62
2023/03/12 19:27:05;;;;;;;12.07;6.30;;;;;;;;;;10099677;28;20120;-62
2023/03/12 19:31:58;;;;;;;15.48;7.78;;;;;;;;;;10097358;28;20052;-63
2023/03/12 19:36:52;;;;;;;7.55;5.95;;;;;;;;;;10101599;28;20079;-63
2023/03/12 19:41:46;;;;;;;9.07;5.32;;;;;;;;;;10103949;28;20057;-63
2023/03/12 19:46:41;;;;;;;10.80;4.72;;;;;;;;;;10090162;28;20099;-63
2023/03/12 19:51:39;;;;;;;7.25;5.72;;;;;;;;;;10104091;28;20503;-62
2023/03/12 19:56:31;;;;;;;12.82;6.28;;;;;;;;;;10105600;28;20049;-63
2023/03/12 20:01:26;;;;;;;11.23;5.78;;;;;;;;;;10105337;28;20492;-63
2023/03/12 20:06:20;;;;;;;11.25;5.32;;;;;;;;;;10086019;28;20059;-63
2023/03/12 20:11:13;;;;;;;14.63;6.18;;;;;;;;;;10097845;28;20450;-63
2023/03/12 20:16:07;;;;;;;16.88;8.18;;;;;;;;;;10071068;28;20077;-63
2023/03/12 20:21:00;;;;;;;7.57;4.63;;;;;;;;;;10085676;28;20469;-63
2023/03/12 20:25:53;;;;;;;13.82;6.88;;;;;;;;;;10072867;28;20048;-62
2023/03/12 20:30:48;;;;;;;13.80;7.10;;;;;;;;;;10090639;28;20087;-63
2023/03/12 20:35:40;;;;;;;9.52;5.68;;;;;;;;;;10112498;28;20131;-63
2023/03/12 20:40:34;;;;;;;10.13;5.32;;;;;;;;;;10091081;28;20060;-63
2023/03/12 20:45:31;;;;;;;9.13;5.38;;;;;;;;;;10108791;28;20111;-62
2023/03/12 20:50:29;;;;;;;9.48;5.30;;;;;;;;;;10104224;28;20060;-63
2023/03/12 20:55:22;;;;;;;9.50;5.13;;;;;;;;;;10104129;28;20041;-64
2023/03/12 21:00:20;;;;;;;9.73;5.35;;;;;;;;;;10105073;28;20053;-64
2023/03/12 21:05:15;;;;;;;12.50;5.97;;;;;;;;;;10090121;28;20462;-64
2023/03/12 21:10:10;;;;;;;10.00;5.95;;;;;;;;;;10092375;28;20057;-64
2023/03/12 21:15:11;;;;;;;9.45;5.25;;;;;;;;;;10108330;28;20091;-64
2023/03/12 21:20:09;;;;;;;7.57;5.72;;;;;;;;;;10104850;28;20043;-64
2023/03/12 21:25:18;;;;;;;16.98;7.65;;;;;;;;;;10092929;28;20156;-65
2023/03/12 21:30:13;;;;;;;9.10;7.00;;;;;;;;;;10100081;28;20052;-63
2023/03/12 21:35:08;;;;;;;11.23;7.90;;;;;;;;;;10106237;28;20120;-63
2023/03/12 21:40:01;;;;;;;8.18;5.43;;;;;;;;;;10106478;28;20060;-64
2023/03/12 21:44:55;;;;;;;6.93;5.80;;;;;;;;;;10107105;28;20880;-64
2023/03/12 21:49:48;;;;;;;12.18;7.05;;;;;;;;;;10107069;28;20068;-63
2023/03/12 21:54:41;;;;;;;12.27;6.47;;;;;;;;;;10107081;28;20084;-63
2023/03/12 21:59:36;;;;;;;12.20;6.07;;;;;;;;;;10107177;28;20045;-63
2023/03/12 22:04:28;;;;;;;15.07;7.97;;;;;;;;;;10103027;28;20127;-63
2023/03/12 22:09:21;;;;;;;13.75;6.50;;;;;;;;;;10100633;28;20499;-63
2023/03/12 22:14:14;;;;;;;11.35;6.03;;;;;;;;;;10100755;28;20072;-63
2023/03/12 22:19:08;;;;;;;12.25;5.95;;;;;;;;;;10105089;28;20072;-63
2023/03/12 22:24:02;;;;;;;10.60;7.28;;;;;;;;;;10096483;28;20037;-63
2023/03/12 22:28:58;;;;;;;11.43;5.93;;;;;;;;;;10101917;28;20087;-63
2023/03/12 22:33:50;;;;;;;9.63;6.63;;;;;;;;;;10105250;28;20469;-63
2023/03/12 22:38:46;;;;;;;9.35;6.57;;;;;;;;;;10105078;28;20064;-64
2023/03/12 22:43:39;;;;;;;11.82;7.85;;;;;;;;;;10106046;28;20068;-64
2023/03/12 22:48:31;;;;;;;17.15;7.05;;;;;;;;;;10104514;28;20036;-64
2023/03/12 22:53:25;;;;;;;11.20;6.78;;;;;;;;;;10105005;28;20040;-64
2023/03/12 22:58:19;;;;;;;15.18;8.10;;;;;;;;;;10104954;28;20132;-64
2023/03/12 23:03:13;;;;;;;12.50;9.32;;;;;;;;;;10103819;28;20049;-63
2023/03/12 23:08:06;;;;;;;11.73;7.03;;;;;;;;;;10104780;28;20056;-63
2023/03/12 23:12:58;;;;;;;10.75;7.72;;;;;;;;;;10104132;28;20415;-66
2023/03/12 23:17:52;;;;;;;14.90;8.45;;;;;;;;;;10103648;28;20102;-64
2023/03/12 23:22:45;;;;;;;14.30;10.13;;;;;;;;;;10103491;28;20055;-65
2023/03/12 23:27:39;;;;;;;15.38;9.13;;;;;;;;;;10101238;28;20033;-66
2023/03/12 23:32:34;;;;;;;16.88;8.48;;;;;;;;;;10104115;28;20135;-66
2023/03/12 23:37:28;;;;;;;13.75;8.85;;;;;;;;;;10103845;28;20053;-66
2023/03/12 23:42:22;;;;;;;13.65;9.80;;;;;;;;;;10103896;28;20119;-66
2023/03/12 23:47:16;;;;;;;14.00;9.07;;;;;;;;;;10099571;28;20037;-65
2023/03/12 23:52:10;;;;;;;13.95;8.70;;;;;;;;;;10103873;28;20056;-65
2023/03/12 23:57:03;;;;;;;19.85;9.25;;;;;;;;;;10103556;28;20041;-65
